Time;durP1;ratioP1;P1;durP2;ratioP2;P2;SDS_P1;SDS_P2;PMS_P1;PMS_P2;Temp;Humidity;BMP_temperature;BMP_pressure;BME280_temperature;BME280_humidity;BME280_pressure;Samples;Min_cycle;Max_cycle;Signal;HPM_P1;HPM_P2
2023/04/14 00:01:17;;;;;;;2.45;1.35;;;8.20;99.90;;;8.15;100.00;100304.50;5153523;28;20046;-80
2023/04/14 00:03:50;;;;;;;2.88;1.60;;;8.20;99.90;;;8.14;100.00;100307.91;5155342;28;20066;-84
2023/04/14 00:06:22;;;;;;;2.40;1.60;;;8.20;99.90;;;8.07;100.00;100296.41;5158491;28;20098;-82
2023/04/14 00:08:56;;;;;;;3.63;1.92;;;8.20;99.90;;;8.05;100.00;100303.28;5138937;28;20047;-81
2023/04/14 00:11:28;;;;;;;3.65;1.80;;;8.10;99.90;;;8.01;100.00;100297.91;5156971;28;20039;-84
2023/04/14 00:14:01;;;;;;;2.90;1.80;;;8.10;99.90;;;8.00;100.00;100293.53;5157561;28;20046;-82
2023/04/14 00:16:33;;;;;;;3.58;1.92;;;8.00;99.90;;;7.98;100.00;100297.81;5162419;28;20071;-81
2023/04/14 00:19:05;;;;;;;3.65;2.22;;;8.00;99.90;;;7.94;100.00;100295.91;5147667;28;20045;-81
2023/04/14 00:21:38;;;;;;;2.10;1.73;;;8.00;99.90;;;7.88;100.00;100293.97;5156305;28;20050;-82
2023/04/14 00:24:11;;;;;;;2.45;2.10;;;7.90;99.90;;;7.86;100.00;100298.22;5154988;28;20050;-80
2023/04/14 00:26:43;;;;;;;3.70;1.98;;;7.90;99.90;;;7.79;100.00;100307.50;5146423;28;20046;-82
2023/04/14 00:29:15;;;;;;;2.47;1.92;;;7.90;99.90;;;7.73;100.00;100308.97;5153020;28;20071;-80
2023/04/14 00:31:47;;;;;;;3.40;2.38;;;7.80;99.90;;;7.67;100.00;100319.97;5147431;28;20066;-82
2023/04/14 00:34:20;;;;;;;2.95;1.75;;;7.70;99.90;;;7.63;100.00;100307.75;5146875;28;20070;-81
2023/04/14 00:36:52;;;;;;;2.17;1.92;;;7.70;99.90;;;7.62;100.00;100316.31;5139456;28;20043;-82
2023/04/14 00:39:25;;;;;;;5.60;2.38;;;7.70;99.90;;;7.60;100.00;100321.47;5169449;28;20120;-80
2023/04/14 00:41:57;;;;;;;4.20;2.45;;;7.70;99.90;;;7.58;100.00;100330.00;5137686;28;20044;-82
2023/04/14 00:44:29;;;;;;;2.97;1.90;;;7.60;99.90;;;7.57;100.00;100328.25;5138766;28;20047;-81
2023/04/14 00:47:02;;;;;;;2.47;2.20;;;7.60;99.90;;;7.55;100.00;100329.88;5153702;28;20043;-83
2023/04/14 00:49:36;;;;;;;4.47;2.15;;;7.60;99.90;;;7.53;100.00;100340.19;5154341;28;20108;-85
2023/04/14 00:52:08;;;;;;;5.93;2.50;;;7.60;99.90;;;7.49;100.00;100345.19;5152279;28;20480;-82
2023/04/14 00:54:42;;;;;;;2.88;2.13;;;7.60;99.90;;;7.46;100.00;100360.66;5145389;28;20051;-80
2023/04/14 00:57:14;;;;;;;4.00;2.20;;;7.60;99.90;;;7.44;100.00;100351.94;5146954;28;20047;-80
2023/04/14 00:59:46;;;;;;;4.57;2.20;;;7.50;99.90;;;7.42;100.00;100348.38;5153699;28;20047;-83
2023/04/14 01:02:22;;;;;;;3.42;2.13;;;7.50;99.90;;;7.35;100.00;100350.72;5153928;28;20051;-83
2023/04/14 01:04:55;;;;;;;3.03;2.08;;;7.50;99.90;;;7.40;100.00;100355.22;5147752;28;20039;-80
2023/04/14 01:07:28;;;;;;;3.38;1.98;;;7.50;99.90;;;7.35;100.00;100353.31;5154555;28;20464;-84
2023/04/14 01:10:02;;;;;;;2.03;1.83;;;7.50;99.90;;;7.32;100.00;100344.53;5151773;28;20053;-82
2023/04/14 01:13:04;;;;;;;1.90;1.75;;;7.40;99.90;;;7.25;100.00;100346.00;5153338;28;20039;-83
2023/04/14 01:15:45;;;;;;;3.67;2.00;;;7.30;99.90;;;7.17;100.00;100351.66;5147392;28;20047;-81
2023/04/14 01:18:28;;;;;;;2.70;2.03;;;7.30;99.90;;;7.10;100.00;100345.34;5152267;28;20057;-82
2023/04/14 01:21:06;;;;;;;2.03;1.80;;;7.20;99.90;;;7.05;100.00;100357.25;5149644;28;20043;-80
2023/04/14 01:23:42;;;;;;;3.58;2.05;;;7.10;99.90;;;7.02;100.00;100362.28;5162586;28;20050;-81
2023/04/14 01:26:30;;;;;;;6.70;2.80;;;7.10;99.90;;;6.96;100.00;100367.22;5150464;28;20571;-85
2023/04/14 01:29:51;;;;;;;4.45;2.42;;;7.10;99.90;;;6.90;100.00;100360.06;5166580;28;20053;-83
2023/04/14 01:32:27;;;;;;;3.80;2.25;;;7.00;99.90;;;6.90;100.00;100365.25;5149906;28;20046;-83
2023/04/14 01:35:04;;;;;;;;;;;7.00;99.90;;;6.87;100.00;100356.47;5143770;28;20043;-82
2023/04/14 01:37:43;;;;;;;3.88;2.08;;;7.00;99.90;;;6.82;100.00;100355.38;5153772;28;19922;-81
2023/04/14 01:40:18;;;;;;;2.38;1.90;;;6.90;99.90;;;6.75;100.00;100356.81;5162955;28;20050;-83
2023/04/14 01:43:01;;;;;;;4.85;2.10;;;6.90;99.90;;;6.73;100.00;100359.34;5144778;28;20058;-81
2023/04/14 01:45:39;;;;;;;3.88;2.35;;;6.80;99.90;;;6.71;100.00;100360.09;5168112;28;20071;-81
2023/04/14 01:48:14;;;;;;;3.13;2.30;;;6.80;99.90;;;6.68;100.00;100354.78;5143957;28;20043;-81
2023/04/14 01:50:47;;;;;;;4.47;2.42;;;6.80;99.90;;;6.68;100.00;100371.22;5157658;28;20071;-84
2023/04/14 01:53:20;;;;;;;2.03;1.73;;;6.70;99.90;;;6.69;100.00;100362.63;5172464;28;20062;-81
2023/04/14 01:55:55;;;;;;;3.50;2.08;;;6.80;99.90;;;6.69;100.00;100356.56;5155042;28;20030;-83
2023/04/14 01:58:29;;;;;;;3.70;2.10;;;6.80;99.90;;;6.66;100.00;100354.72;5157130;28;21697;-82
2023/04/14 02:01:04;;;;;;;4.53;1.90;;;6.80;99.90;;;6.65;100.00;100358.16;5156900;28;20047;-83
2023/04/14 02:03:40;;;;;;;4.15;1.92;;;6.70;99.90;;;6.61;100.00;100353.63;5160875;28;20110;-83
2023/04/14 02:06:13;;;;;;;2.03;1.70;;;6.70;99.90;;;6.55;100.00;100352.50;5176588;28;20050;-84
2023/04/14 02:08:46;;;;;;;3.20;1.88;;;6.70;99.90;;;6.48;100.00;100356.50;5149813;28;20045;-81
2023/04/14 02:11:20;;;;;;;2.70;1.90;;;6.60;99.90;;;6.40;100.00;100358.78;5154526;28;20071;-84
2023/04/14 02:13:54;;;;;;;3.63;2.08;;;6.50;99.90;;;6.33;100.00;100361.03;5166038;28;20027;-83
2023/04/14 02:16:29;;;;;;;2.30;1.75;;;6.50;99.90;;;6.31;100.00;100365.22;5155238;28;20135;-83
2023/04/14 02:19:04;;;;;;;3.47;2.35;;;6.40;99.90;;;6.27;100.00;100363.34;5151900;28;20046;-81
2023/04/14 02:21:40;;;;;;;2.88;1.90;;;6.40;99.90;;;6.23;100.00;100367.47;5149865;28;20145;-81
2023/04/14 02:24:12;;;;;;;3.63;2.03;;;6.30;99.90;;;6.20;100.00;100357.88;5154889;28;20110;-81
2023/04/14 02:26:54;;;;;;;3.35;2.05;;;6.30;99.90;;;6.18;100.00;100353.44;5154046;28;20071;-83
2023/04/14 02:29:28;;;;;;;2.85;2.00;;;6.30;99.90;;;6.15;100.00;100356.78;5160336;28;20122;-81
2023/04/14 02:32:05;;;;;;;2.42;2.08;;;6.30;99.90;;;6.14;100.00;100357.59;5162293;28;20043;-84
2023/04/14 02:34:48;;;;;;;2.40;1.80;;;6.20;99.90;;;6.13;100.00;100347.16;5159615;28;20066;-82
2023/04/14 02:37:25;;;;;;;3.03;1.88;;;6.20;99.90;;;6.09;100.00;100346.16;5149941;28;20051;-79
2023/04/14 02:40:03;;;;;;;3.20;2.10;;;6.20;99.90;;;6.06;100.00;100345.09;5160494;28;20125;-81
2023/04/14 02:42:41;;;;;;;3.42;1.85;;;6.20;99.90;;;6.03;100.00;100357.91;5140223;28;20074;-83
2023/04/14 02:45:19;;;;;;;3.92;1.90;;;6.10;99.90;;;6.01;100.00;100363.03;5157160;28;20043;-80
2023/04/14 02:47:57;;;;;;;5.22;2.03;;;6.10;99.90;;;5.99;100.00;100362.06;5170445;28;20050;-82
2023/04/14 02:50:34;;;;;;;1.90;1.70;;;6.10;99.90;;;5.95;100.00;100355.00;5166050;28;20057;-80
2023/04/14 02:53:21;;;;;;;3.00;2.28;;;6.10;99.90;;;5.91;100.00;100360.81;5157207;28;20054;-81
2023/04/14 02:55:53;;;;;;;4.35;2.72;;;6.10;99.90;;;5.88;100.00;100364.13;5165272;28;20023;-82
2023/04/14 02:58:28;;;;;;;4.82;2.78;;;6.00;99.90;;;5.87;100.00;100364.06;5158307;28;20043;-82
2023/04/14 03:01:01;;;;;;;4.60;2.38;;;6.00;99.90;;;5.89;100.00;100362.44;5160710;28;20062;-81
2023/04/14 03:03:36;;;;;;;2.83;1.95;;;6.00;99.90;;;5.90;100.00;100371.94;5156637;28;20042;-80
2023/04/14 03:06:11;;;;;;;;;;;6.00;99.90;;;5.89;100.00;100367.59;5155926;28;20509;-82
2023/04/14 03:08:45;;;;;;;3.60;2.10;;;6.00;99.90;;;5.87;100.00;100369.25;5149184;28;19922;-82
2023/04/14 03:11:18;;;;;;;3.80;1.90;;;6.00;99.90;;;5.84;100.00;100369.06;5156473;28;20109;-81
2023/04/14 03:13:53;;;;;;;2.97;2.10;;;6.00;99.90;;;5.82;100.00;100373.31;5148771;28;20054;-82
2023/04/14 03:16:27;;;;;;;3.72;2.00;;;6.00;99.90;;;5.78;100.00;100380.03;5163976;28;20051;-79
2023/04/14 03:19:02;;;;;;;4.28;2.10;;;5.90;99.90;;;5.73;100.00;100374.63;5151271;28;20041;-82
2023/04/14 03:21:36;;;;;;;4.72;2.25;;;5.90;99.90;;;5.68;100.00;100373.53;5154889;28;20039;-80
2023/04/14 03:24:12;;;;;;;5.60;2.05;;;5.80;99.90;;;5.66;100.00;100364.81;5169432;28;20058;-80
2023/04/14 03:26:47;;;;;;;3.40;2.22;;;5.80;99.90;;;5.67;100.00;100376.03;5169568;28;20069;-80
2023/04/14 03:29:21;;;;;;;4.18;2.20;;;5.80;99.90;;;5.66;100.00;100376.84;5154838;28;20106;-80
2023/04/14 03:31:58;;;;;;;3.47;1.98;;;5.80;99.90;;;5.66;100.00;100369.97;5150727;28;20058;-80
2023/04/14 03:34:34;;;;;;;2.72;1.90;;;5.80;99.90;;;5.62;100.00;100372.38;5157779;28;20106;-82
2023/04/14 03:37:09;;;;;;;2.83;1.90;;;5.80;99.90;;;5.61;100.00;100383.53;5159031;28;20043;-83
2023/04/14 03:39:44;;;;;;;2.92;2.03;;;5.80;99.90;;;5.55;100.00;100381.53;5158708;28;20069;-81
2023/04/14 03:42:20;;;;;;;3.72;1.80;;;5.70;99.90;;;5.52;100.00;100380.47;5175346;23;20058;-69
2023/04/14 03:44:56;;;;;;;2.63;1.98;;;5.70;99.90;;;5.47;100.00;100382.81;5143550;28;20043;-70
2023/04/14 03:47:30;;;;;;;2.00;1.80;;;5.60;99.90;;;5.43;100.00;100386.09;5153298;28;20047;-70
2023/04/14 03:50:07;;;;;;;3.20;2.03;;;5.60;99.90;;;5.41;100.00;100390.28;5121440;28;20043;-69
2023/04/14 03:52:45;;;;;;;4.32;2.20;;;5.50;99.90;;;5.37;100.00;100391.84;5122913;28;20412;-70
2023/04/14 03:55:20;;;;;;;4.05;2.30;;;5.50;99.90;;;5.36;100.00;100400.41;5121467;28;20102;-68
2023/04/14 03:57:55;;;;;;;;;;;5.50;99.90;;;5.36;100.00;100404.72;5122003;28;20523;-70
2023/04/14 04:00:27;;;;;;;4.07;2.22;;;5.50;99.90;;;5.34;100.00;100401.13;5121184;28;19926;-69
2023/04/14 04:03:00;;;;;;;2.90;2.17;;;5.50;99.90;;;5.31;100.00;100395.84;5122844;28;20035;-70
2023/04/14 04:05:34;;;;;;;2.75;1.80;;;5.50;99.90;;;5.28;100.00;100400.84;5121428;28;20051;-69
2023/04/14 04:08:09;;;;;;;4.28;2.17;;;5.40;99.90;;;5.26;100.00;100405.06;5122453;28;20043;-69
2023/04/14 04:10:43;;;;;;;2.63;2.05;;;5.40;99.90;;;5.23;100.00;100402.31;5122787;28;20119;-70
2023/04/14 04:13:17;;;;;;;3.83;2.00;;;5.40;99.90;;;5.22;100.00;100405.72;5120978;28;20077;-69
2023/04/14 04:15:54;;;;;;;2.53;2.17;;;5.40;99.90;;;5.21;100.00;100406.50;5121413;28;20134;-70
2023/04/14 04:18:27;;;;;;;4.03;2.13;;;5.40;99.90;;;5.17;100.00;100398.63;5137063;28;20102;-70
2023/04/14 04:21:01;;;;;;;2.75;1.80;;;5.30;99.90;;;5.14;100.00;100406.19;5121780;28;20058;-69
2023/04/14 04:23:37;;;;;;;;;;;5.30;99.90;;;5.10;100.00;100393.97;5121588;28;20051;-69
2023/04/14 04:26:09;;;;;;;2.67;1.90;;;5.30;99.90;;;5.07;100.00;100405.81;5122771;28;19973;-69
2023/04/14 04:28:44;;;;;;;3.22;1.90;;;5.30;99.90;;;5.02;100.00;100403.03;5136878;28;20051;-69
2023/04/14 04:31:20;;;;;;;3.08;1.75;;;5.20;99.90;;;5.00;100.00;100404.63;5121009;28;20058;-69
2023/04/14 04:33:53;;;;;;;2.22;1.92;;;5.20;99.90;;;4.96;100.00;100391.50;5121095;28;20127;-70
2023/04/14 04:36:30;;;;;;;2.55;2.00;;;5.10;99.90;;;4.93;100.00;100392.22;5120814;28;20078;-69
2023/04/14 04:39:04;;;;;;;1.98;1.52;;;5.10;99.90;;;4.89;100.00;100387.72;5120998;28;20039;-69
2023/04/14 04:41:41;;;;;;;2.13;1.90;;;5.10;99.90;;;4.87;100.00;100397.94;5121097;28;20043;-70
2023/04/14 04:44:15;;;;;;;3.05;1.90;;;5.00;99.90;;;4.88;100.00;100406.59;5117678;28;20413;-69
2023/04/14 04:46:53;;;;;;;3.97;2.28;;;5.00;99.90;;;4.88;100.00;100409.16;5114026;28;20066;-69
2023/04/14 04:49:28;;;;;;;2.88;1.80;;;5.00;99.90;;;4.88;100.00;100409.16;5120842;28;20134;-69
2023/04/14 04:52:06;;;;;;;2.05;1.77;;;5.00;99.90;;;4.90;100.00;100412.72;5121315;28;20043;-68
2023/04/14 04:54:39;;;;;;;5.15;2.13;;;5.00;99.90;;;4.91;100.00;100414.50;5121175;28;20070;-69
2023/04/14 04:57:12;;;;;;;5.05;2.35;;;5.10;99.90;;;4.92;100.00;100415.38;5122098;28;20512;-69
2023/04/14 04:59:45;;;;;;;2.25;1.75;;;5.10;99.90;;;4.93;100.00;100412.88;5122272;28;20051;-69
2023/04/14 05:02:18;;;;;;;4.63;1.90;;;5.10;99.90;;;4.95;100.00;100421.56;5126160;28;20062;-70
2023/04/14 05:04:50;;;;;;;2.40;1.92;;;5.10;99.90;;;4.95;100.00;100418.09;5126438;28;20043;-69
2023/04/14 05:07:22;;;;;;;5.32;3.60;;;5.10;99.90;;;4.96;100.00;100431.13;5123698;28;20051;-69
2023/04/14 05:09:56;;;;;;;9.57;5.15;;;5.10;99.90;;;4.97;100.00;100429.44;5126029;28;20057;-70
2023/04/14 05:12:28;;;;;;;8.23;4.25;;;5.10;99.90;;;4.98;100.00;100426.91;5125946;28;20046;-70
2023/04/14 05:15:00;;;;;;;7.75;4.00;;;5.10;99.90;;;5.04;100.00;100439.28;5126285;28;20047;-69
2023/04/14 05:17:32;;;;;;;4.80;2.97;;;5.20;99.90;;;5.08;100.00;100430.84;5125547;28;20054;-69
2023/04/14 05:20:06;;;;;;;5.47;3.25;;;5.20;99.90;;;5.08;100.00;100431.72;5125054;28;20138;-70
2023/04/14 05:22:38;;;;;;;3.95;2.50;;;5.20;99.90;;;5.08;100.00;100420.50;5125800;28;20050;-70
2023/04/14 05:25:12;;;;;;;3.70;2.35;;;5.30;99.90;;;5.12;100.00;100425.91;5126397;28;20047;-69
2023/04/14 05:27:44;;;;;;;5.30;2.60;;;5.30;99.90;;;5.20;100.00;100428.00;5123510;28;20105;-69
2023/04/14 05:30:16;;;;;;;5.82;2.40;;;5.40;99.90;;;5.29;100.00;100431.06;5126276;28;20044;-69
2023/04/14 05:32:48;;;;;;;4.10;2.58;;;5.40;99.90;;;5.29;100.00;100431.94;5139402;28;20031;-69
2023/04/14 05:35:20;;;;;;;4.75;2.22;;;5.50;99.90;;;5.38;100.00;100436.69;5119217;28;20054;-64
2023/04/14 05:37:52;;;;;;;3.25;2.08;;;5.50;99.90;;;5.44;100.00;100430.13;5122687;28;20098;-64
2023/04/14 05:40:27;;;;;;;2.50;2.05;;;5.60;99.90;;;5.51;100.00;100440.75;5121391;28;20070;-66
2023/04/14 05:42:59;;;;;;;4.40;2.08;;;5.60;99.90;;;5.56;100.00;100424.66;5118002;28;20106;-65
2023/04/14 05:45:31;;;;;;;3.97;2.10;;;5.70;99.90;;;5.60;100.00;100425.69;5124630;28;20070;-65
2023/04/14 05:48:04;;;;;;;3.25;2.15;;;5.80;99.90;;;5.65;100.00;100434.56;5125169;28;20043;-64
2023/04/14 05:50:37;;;;;;;3.47;2.22;;;5.80;99.90;;;5.71;100.00;100429.69;5125008;28;20043;-65
2023/04/14 05:53:10;;;;;;;5.07;2.47;;;5.80;99.90;;;5.77;100.00;100427.38;5120484;28;20131;-65
2023/04/14 05:55:45;;;;;;;4.30;2.38;;;5.90;99.90;;;5.89;100.00;100430.56;5124017;28;20051;-64
2023/04/14 05:58:18;;;;;;;4.95;2.65;;;6.00;99.90;;;6.09;100.00;100421.19;5124649;28;20050;-64
2023/04/14 06:00:50;;;;;;;4.88;2.42;;;6.10;99.90;;;6.48;100.00;100423.84;5124937;28;20456;-64
2023/04/14 06:03:22;;;;;;;6.25;2.60;;;6.40;99.90;;;6.97;100.00;100420.81;5121780;28;20053;-64
2023/04/14 06:05:54;;;;;;;6.40;2.80;;;6.80;99.90;;;7.56;100.00;100431.13;5131274;28;20050;-65
2023/04/14 06:08:26;;;;;;;4.45;2.95;;;7.30;99.90;;;8.16;100.00;100420.50;5130756;28;20142;-65
2023/04/14 06:11:00;;;;;;;5.90;3.60;;;7.90;99.90;;;8.74;100.00;100429.59;5117445;28;20043;-64
2023/04/14 06:13:32;;;;;;;3.90;2.38;;;8.40;99.90;;;9.30;100.00;100430.72;5124092;28;20142;-64
2023/04/14 06:16:04;;;;;;;4.03;2.63;;;9.00;99.90;;;9.81;100.00;100422.88;5124708;28;20039;-64
2023/04/14 06:18:36;;;;;;;5.35;2.33;;;9.40;99.90;;;10.28;100.00;100429.56;5123628;28;20047;-64
2023/04/14 06:21:08;;;;;;;6.05;2.15;;;9.90;99.90;;;10.68;100.00;100428.13;5124212;28;20401;-63
2023/04/14 06:23:40;;;;;;;4.32;3.13;;;10.30;99.90;;;11.14;100.00;100436.38;5123889;28;20043;-63
2023/04/14 06:26:14;;;;;;;6.30;4.10;;;10.70;99.90;;;11.59;97.63;100427.97;5124161;28;20051;-63
2023/04/14 06:28:46;;;;;;;5.15;2.67;;;11.10;99.90;;;11.97;96.30;100425.44;5123164;28;20047;-64
2023/04/14 06:31:18;;;;;;;4.22;2.80;;;11.60;99.90;;;12.28;93.35;100431.38;5119980;28;20050;-64
2023/04/14 06:33:51;;;;;;;5.25;2.40;;;11.90;99.90;;;12.39;90.87;100428.16;5122917;28;20560;-64
2023/04/14 06:36:23;;;;;;;4.80;2.58;;;12.00;99.90;;;12.58;89.44;100424.16;5123842;28;20053;-63
2023/04/14 06:38:57;;;;;;;5.47;3.00;;;12.20;99.90;;;12.77;89.33;100423.69;5123813;28;20412;-64
2023/04/14 06:41:30;;;;;;;8.60;3.35;;;12.40;99.90;;;12.86;88.41;100414.28;5123939;28;20058;-63
2023/04/14 06:44:02;;;;;;;6.20;3.45;;;12.50;99.90;;;12.96;88.30;100416.19;5124291;28;20042;-64
2023/04/14 06:46:34;;;;;;;6.47;2.58;;;12.70;99.90;;;13.05;86.76;100413.78;5123807;28;20062;-63
2023/04/14 06:49:07;;;;;;;6.03;2.60;;;12.80;99.90;;;13.20;86.62;100424.56;5123665;28;20047;-64
2023/04/14 06:51:39;;;;;;;5.72;2.58;;;12.90;99.90;;;13.00;85.70;100420.66;5115751;28;20497;-63
2023/04/14 06:54:11;;;;;;;6.45;2.75;;;12.90;99.90;;;12.87;87.14;100413.41;5123711;28;20050;-63
2023/04/14 06:56:44;;;;;;;7.72;2.58;;;12.80;99.90;;;13.02;85.71;100411.97;5123458;28;20055;-64
2023/04/14 06:59:18;;;;;;;3.80;2.10;;;12.80;99.90;;;13.30;84.93;100410.78;5123671;28;20054;-66
2023/04/14 07:01:50;;;;;;;4.25;2.50;;;13.00;99.90;;;13.48;82.95;100399.72;5123318;28;20083;-63
2023/04/14 07:04:22;;;;;;;5.63;2.78;;;13.20;99.10;;;13.67;82.96;100398.28;5122963;28;20051;-64
2023/04/14 07:07:00;;;;;;;9.02;4.55;;;13.30;98.90;;;13.92;82.40;100394.31;5115752;28;20049;-63
2023/04/14 07:09:32;;;;;;;6.35;2.60;;;13.50;98.80;;;14.12;82.60;100399.84;5123478;28;20051;-63
2023/04/14 07:12:06;;;;;;;6.18;3.53;;;13.70;98.80;;;14.29;81.25;100397.47;5123702;28;20043;-64
2023/04/14 07:14:38;;;;;;;3.70;2.03;;;13.90;98.10;;;14.26;80.32;100397.41;5123318;28;20062;-64
2023/04/14 07:17:10;;;;;;;5.50;2.80;;;14.00;97.30;;;14.26;80.96;100393.03;5123154;28;20043;-64
2023/04/14 07:19:42;;;;;;;4.35;2.53;;;14.00;97.20;;;14.47;80.74;100397.72;5123290;28;20057;-63
2023/04/14 07:22:14;;;;;;;5.85;2.38;;;14.10;97.30;;;14.74;79.79;100399.81;5122981;28;20047;-61
2023/04/14 07:24:47;;;;;;;4.72;2.75;;;14.40;96.70;;;14.87;77.89;100391.22;5120437;28;20071;-62
2023/04/14 07:27:20;;;;;;;4.25;2.30;;;14.50;95.50;;;15.08;78.79;100397.56;5122962;28;20118;-61
2023/04/14 07:29:53;;;;;;;5.18;2.90;;;14.60;96.00;;;15.32;78.33;100391.63;5123091;28;20054;-61
2023/04/14 07:32:25;;;;;;;3.03;2.00;;;14.80;95.90;;;15.44;77.00;100389.13;5123757;28;20135;-61
2023/04/14 07:34:57;;;;;;;3.75;1.90;;;15.00;95.00;;;15.58;76.42;100373.47;5116034;28;20045;-61
2023/04/14 07:37:29;;;;;;;6.93;2.40;;;15.10;94.50;;;15.72;75.74;100377.16;5122583;28;20118;-62
2023/04/14 07:40:02;;;;;;;4.15;3.13;;;15.20;93.90;;;15.86;76.29;100374.63;5128790;28;20043;-62
2023/04/14 07:42:35;;;;;;;5.35;3.05;;;15.30;94.20;;;16.08;75.40;100375.63;5135143;28;20047;-63
2023/04/14 07:45:09;;;;;;;5.85;2.83;;;15.50;93.70;;;16.12;73.91;100372.16;5129686;28;20114;-61
2023/04/14 07:47:41;;;;;;;5.68;2.90;;;15.60;92.50;;;16.35;73.79;100374.88;5132674;28;20050;-62
2023/04/14 07:50:13;;;;;;;5.22;1.92;;;15.70;92.40;;;16.52;73.14;100376.72;5128864;28;20062;-61
2023/04/14 07:52:46;;;;;;;3.80;2.15;;;15.90;91.90;;;16.57;71.96;100370.59;5134219;28;20045;-61
2023/04/14 07:55:18;;;;;;;5.30;2.28;;;16.00;90.90;;;16.62;71.84;100374.97;5135332;28;20062;-61
2023/04/14 07:57:51;;;;;;;7.13;2.25;;;16.10;90.70;;;16.75;71.00;100375.94;5124125;28;20058;-59
2023/04/14 08:00:23;;;;;;;3.78;1.65;;;16.10;90.20;;;16.87;70.49;100378.59;5122641;28;20070;-60
2023/04/14 08:02:55;;;;;;;3.10;1.75;;;16.20;89.40;;;17.06;70.45;100377.78;5121379;28;20046;-64
2023/04/14 08:05:27;;;;;;;3.83;1.45;;;16.30;89.50;;;17.21;69.95;100382.16;5119772;28;20397;-64
2023/04/14 08:07:59;;;;;;;6.18;1.52;;;16.40;89.00;;;17.44;70.21;100374.31;5121978;28;20050;-63
2023/04/14 08:10:32;;;;;;;5.00;1.83;;;16.50;89.20;;;17.76;70.56;100384.88;5131111;28;20043;-64
2023/04/14 08:13:05;;;;;;;3.28;1.50;;;16.80;90.30;;;18.09;67.54;100381.28;5123221;28;20046;-63
2023/04/14 08:15:37;;;;;;;2.17;1.27;;;16.90;86.80;;;18.53;65.98;100382.03;5122434;28;20059;-64
2023/04/14 08:18:09;;;;;;;4.65;1.40;;;17.20;84.70;;;18.98;65.23;100380.97;5123296;28;20067;-64
2023/04/14 08:20:41;;;;;;;2.72;1.38;;;17.40;84.20;;;19.58;64.92;100378.78;5122514;28;20500;-64
2023/04/14 08:23:13;;;;;;;3.80;1.35;;;17.70;84.50;;;20.18;62.53;100370.25;5122555;28;20043;-64
2023/04/14 08:25:46;;;;;;;4.18;1.42;;;17.90;81.90;;;20.70;61.01;100374.94;5120214;28;20453;-63
2023/04/14 08:28:19;;;;;;;2.70;1.48;;;18.20;80.30;;;21.27;59.71;100370.59;5122009;28;20062;-62
2023/04/14 08:30:51;;;;;;;5.13;1.60;;;18.50;79.00;;;22.00;57.42;100370.25;5122061;28;20053;-63
2023/04/14 08:33:23;;;;;;;3.42;1.48;;;18.80;76.80;;;22.91;55.87;100373.72;5122418;28;20412;-63
2023/04/14 08:35:55;;;;;;;4.38;1.80;;;19.30;76.20;;;24.02;52.81;100375.44;5121927;28;20043;-63
2023/04/14 08:38:27;;;;;;;6.82;1.65;;;20.10;72.70;;;24.92;50.26;100374.66;5121727;28;20059;-63
2023/04/14 08:41:04;;;;;;;2.53;1.30;;;21.00;69.00;;;25.76;48.36;100371.97;5114768;28;20050;-64
2023/04/14 08:43:38;;;;;;;3.50;1.40;;;21.90;66.00;;;26.32;46.28;100381.53;5122065;28;20519;-62
2023/04/14 08:46:11;;;;;;;5.38;1.60;;;22.50;62.50;;;26.77;46.15;100369.16;5122113;28;20047;-63
2023/04/14 08:48:47;;;;;;;3.40;1.50;;;23.10;62.00;;;27.36;45.86;100361.50;5121385;28;20122;-64
2023/04/14 08:51:31;;;;;;;5.97;1.83;;;23.70;60.80;;;27.62;45.21;100374.66;5122239;28;20493;-64
2023/04/14 08:54:09;;;;;;;3.30;1.42;;;24.00;59.50;;;27.85;44.68;100369.25;5115094;28;20531;-64
2023/04/14 08:56:42;;;;;;;3.58;1.35;;;24.30;58.60;;;28.07;44.76;100365.63;5119961;28;20040;-64
2023/04/14 08:59:16;;;;;;;4.05;1.30;;;24.50;58.60;;;28.13;43.44;100366.22;5121418;28;20382;-64
2023/04/14 09:01:48;;;;;;;5.07;1.40;;;24.60;57.00;;;28.04;42.83;100365.78;5121637;28;20051;-63
2023/04/14 09:04:21;;;;;;;4.88;1.20;;;24.60;56.00;;;27.78;42.70;100359.75;5122192;28;20043;-63
2023/04/14 09:06:56;;;;;;;2.63;1.27;;;24.60;55.50;;;27.38;42.66;100354.28;5121611;28;20055;-63
2023/04/14 09:09:29;;;;;;;4.43;1.50;;;24.40;54.70;;;26.89;44.16;100357.09;5121453;28;20133;-62
2023/04/14 09:12:02;;;;;;;4.32;1.52;;;24.20;56.20;;;26.30;44.00;100346.88;5113880;28;19923;-63
2023/04/14 09:14:37;;;;;;;4.15;1.48;;;24.00;55.60;;;25.70;44.54;100342.78;5121042;28;20043;-63
2023/04/14 09:17:09;;;;;;;3.45;1.35;;;23.60;55.60;;;25.15;45.61;100342.81;5121393;28;20047;-63
2023/04/14 09:19:42;;;;;;;4.65;1.20;;;23.50;56.00;;;24.25;45.93;100352.63;5122222;28;20043;-62
2023/04/14 09:22:15;;;;;;;3.63;1.20;;;23.00;55.60;;;23.13;45.47;100339.53;5122381;28;20216;-62
2023/04/14 09:24:48;;;;;;;4.00;1.35;;;22.20;54.70;;;22.36;48.09;100348.31;5119292;28;20044;-62
2023/04/14 09:27:20;;;;;;;5.32;1.50;;;21.60;56.50;;;21.81;48.32;100338.75;5114361;28;20054;-61
2023/04/14 09:29:57;;;;;;;2.53;1.23;;;21.20;56.70;;;21.38;49.27;100333.31;5107316;28;20054;-63
2023/04/14 09:32:29;;;;;;;1.98;0.95;;;20.70;57.60;;;21.23;50.73;100328.25;5121149;28;20082;-63
2023/04/14 09:35:02;;;;;;;5.13;1.35;;;20.50;59.00;;;21.06;50.46;100332.03;5117703;28;20039;-62
2023/04/14 09:37:43;;;;;;;4.40;1.50;;;20.30;58.90;;;20.81;50.15;100323.59;5120365;28;20555;-62
2023/04/14 09:40:28;;;;;;;1.25;0.95;;;20.10;58.50;;;20.60;51.00;100331.81;5121349;28;20043;-62
2023/04/14 09:43:01;;;;;;;2.65;1.10;;;20.00;59.30;;;20.45;51.18;100326.72;5167191;23;20491;-55
2023/04/14 09:45:44;;;;;;;3.70;1.10;;;19.80;59.50;;;20.40;51.75;100329.38;5154095;28;20042;-55
2023/04/14 09:48:16;;;;;;;3.17;0.98;;;19.80;60.10;;;20.18;50.21;100328.78;5140756;28;20050;-55
2023/04/14 09:51:00;;;;;;;4.43;1.52;;;19.60;58.60;;;19.85;49.49;100330.03;5144809;28;20043;-55
2023/04/14 09:53:34;;;;;;;2.90;1.38;;;19.40;57.80;;;19.80;51.12;100321.28;5144349;28;20055;-54
2023/04/14 09:56:09;;;;;;;3.17;0.90;;;19.30;59.20;;;19.86;52.50;100325.63;5144739;28;20047;-53
2023/04/14 09:58:44;;;;;;;4.00;1.38;;;19.30;60.70;;;19.88;51.61;100315.91;5144471;28;20522;-55
2023/04/14 10:01:20;;;;;;;4.70;1.30;;;19.30;60.10;;;19.72;51.15;100317.84;5144866;28;20047;-55
2023/04/14 10:03:52;;;;;;;4.65;1.52;;;19.20;59.70;;;19.49;50.93;100310.09;5144343;28;20038;-55
2023/04/14 10:06:25;;;;;;;4.05;1.00;;;19.00;59.10;;;19.47;51.93;100301.31;5145286;28;20079;-55
2023/04/14 10:08:58;;;;;;;2.80;1.38;;;19.00;59.90;;;19.43;52.38;100307.50;5146165;28;20046;-54
2023/04/14 10:11:32;;;;;;;3.53;0.90;;;18.90;60.50;;;19.53;52.78;100295.97;5147475;28;20455;-55
2023/04/14 10:14:06;;;;;;;6.13;1.13;;;18.90;60.90;;;19.67;53.09;100303.78;5137015;28;20129;-55
2023/04/14 10:16:40;;;;;;;3.30;1.25;;;19.00;61.50;;;19.59;51.72;100285.34;5148459;28;20038;-55
2023/04/14 10:19:12;;;;;;;3.70;1.30;;;19.00;60.00;;;19.68;53.85;100279.97;5150556;28;20043;-55
2023/04/14 10:21:44;;;;;;;2.85;1.02;;;19.00;62.00;;;19.86;53.78;100276.25;5143980;28;20062;-54
2023/04/14 10:24:17;;;;;;;1.58;1.08;;;19.20;62.30;;;20.02;54.81;100269.91;5148863;28;20561;-55
2023/04/14 10:26:49;;;;;;;2.40;1.00;;;19.30;63.10;;;20.23;54.82;100267.88;5143852;28;20050;-56
2023/04/14 10:29:21;;;;;;;2.67;1.38;;;19.40;64.30;;;20.43;53.16;100264.97;5144388;28;20284;-56
2023/04/14 10:32:01;;;;;;;2.95;0.98;;;19.60;62.40;;;20.58;53.28;100259.47;5144005;28;20507;-55
2023/04/14 10:34:35;;;;;;;2.33;1.00;;;19.70;62.00;;;20.81;56.27;100262.66;5143690;28;20133;-56
2023/04/14 10:37:14;;;;;;;4.15;1.50;;;20.00;65.30;;;21.02;57.11;100256.16;5150519;28;20066;-56
2023/04/14 10:39:55;;;;;;;4.07;1.20;;;20.20;65.80;;;21.31;55.00;100253.00;5140096;28;20058;-58
2023/04/14 10:42:31;;;;;;;5.55;1.40;;;20.50;64.00;;;21.61;51.68;100259.53;5144598;28;20343;-56
2023/04/14 10:45:07;;;;;;;4.07;1.15;;;20.80;61.00;;;21.65;50.24;100248.00;5133183;28;20050;-55
2023/04/14 10:47:42;;;;;;;3.22;0.90;;;20.80;59.60;;;21.57;50.21;100239.28;5140315;28;20066;-54